Aurora, South Dakota
Current Conditions -  °F | °C
As of 3:15 AM on Friday 31 Oct 2014 (Local Time) from KMDS Reporting Station
Clear Clear  
Wind Chill: 12°   Ceiling: Unl
Heat Index: 23°   Visibility: 10mi
Dew Point: 19°   Wind: 10mph
Humidity: 86%   Direction: 10°N
Pressure: 30.51"   Gusts: NA
Location:  44.28°N, 96.69°W
Report Text: KMDS 310815Z AUTO 01009KT 10SM CLR M05/M07 A3051 RMK AO2
Loading
Personal Weather Stations






























Interactive Weather Map New forecast layout! Learn more

10-Day Weather Forecast

Advertisements
Track Severe Weather on mobile